<?xml version='1.0' encoding='UTF-8'?>
<gpx xmlns="http://www.topografix.com/GPX/1/1" creator="www.balnam.be" version="1.1" xmlns:xsi="http://www.w3.org/2001/XMLSchema-instance" xsi:schemaLocation="http://www.topografix.com/GPX/1/1 http://www.topografix.com/GPX/1/1/gpx.xsd">
<trk>
<name>hmnlh13</name>
<cmt>r</cmt>
<desc>La Hestre Sentier n°13 Quartier Claessens / Rue de Canterlot</desc>
<link href="https://chemins.be/lahestre/sentier/13"/><trkseg>
<trkpt lat="50.465471" lon="4.218156"><time>2026-05-02T16:08:25Z</time></trkpt>
<trkpt lat="50.465883" lon="4.218958"><time>2026-05-02T16:18:25Z</time></trkpt>
<trkpt lat="50.465780" lon="4.219370"><time>2026-05-02T16:28:25Z</time></trkpt>
<trkpt lat="50.466221" lon="4.220076"><time>2026-05-02T16:38:25Z</time></trkpt>
</trkseg></trk>
<trk>
<name>hmnlh13</name>
<cmt>q</cmt>
<desc>La Hestre Sentier n°13 Quartier Claessens / Rue de Canterlot</desc>
<link href="https://chemins.be/lahestre/sentier/13"/><trkseg>
<trkpt lat="50.466221" lon="4.220076"><time>2026-05-02T16:38:25Z</time></trkpt>
<trkpt lat="50.466848" lon="4.221080"><time>2026-05-02T16:48:25Z</time></trkpt>
<trkpt lat="50.466783" lon="4.221338"><time>2026-05-02T16:58:25Z</time></trkpt>
<trkpt lat="50.467572" lon="4.221831"><time>2026-05-02T17:08:25Z</time></trkpt>
<trkpt lat="50.468487" lon="4.222402"><time>2026-05-02T17:18:25Z</time></trkpt>
</trkseg></trk>
<trk>
<name>hmnlh13</name>
<cmt>r</cmt>
<desc>La Hestre Sentier n°13 Quartier Claessens / Rue de Canterlot</desc>
<link href="https://chemins.be/lahestre/sentier/13"/><trkseg>
<trkpt lat="50.468487" lon="4.222402"><time>2026-05-02T17:18:25Z</time></trkpt>
<trkpt lat="50.468389" lon="4.223029"><time>2026-05-02T17:28:25Z</time></trkpt>
<trkpt lat="50.468602" lon="4.223750"><time>2026-05-02T17:38:25Z</time></trkpt>
<trkpt lat="50.468853" lon="4.223741"><time>2026-05-02T17:48:25Z</time></trkpt>
<trkpt lat="50.469438" lon="4.224677"><time>2026-05-02T17:58:25Z</time></trkpt>
</trkseg></trk>
<trk>
<name>hmnlh13</name>
<cmt>q</cmt>
<desc>La Hestre Sentier n°13 Quartier Claessens / Rue de Canterlot</desc>
<link href="https://chemins.be/lahestre/sentier/13"/><trkseg>
<trkpt lat="50.469438" lon="4.224677"><time>2026-05-02T17:58:25Z</time></trkpt>
<trkpt lat="50.469727" lon="4.224356"><time>2026-05-02T18:08:25Z</time></trkpt>
<trkpt lat="50.471813" lon="4.226414"><time>2026-05-02T18:18:25Z</time></trkpt>
</trkseg></trk>
<trk>
<name>hmnlh13</name>
<cmt>r</cmt>
<desc>La Hestre Sentier n°13 Quartier Claessens / Rue de Canterlot</desc>
<link href="https://chemins.be/lahestre/sentier/13"/><trkseg>
<trkpt lat="50.471813" lon="4.226414"><time>2026-05-02T18:18:25Z</time></trkpt>
<trkpt lat="50.472011" lon="4.226935"><time>2026-05-02T18:28:25Z</time></trkpt>
<trkpt lat="50.472116" lon="4.227891"><time>2026-05-02T18:38:25Z</time></trkpt>
<trkpt lat="50.472777" lon="4.229987"><time>2026-05-02T18:48:25Z</time></trkpt>
</trkseg></trk>
<trk>
<name>hmnlh13</name>
<cmt>v</cmt>
<desc>La Hestre Sentier n°13 Quartier Claessens / Rue de Canterlot</desc>
<link href="https://chemins.be/lahestre/sentier/13"/><trkseg>
<trkpt lat="50.472777" lon="4.229987"><time>2026-05-02T18:48:25Z</time></trkpt>
<trkpt lat="50.472877" lon="4.230860"><time>2026-05-02T18:58:25Z</time></trkpt>
<trkpt lat="50.472796" lon="4.230944"><time>2026-05-02T19:08:25Z</time></trkpt>
<trkpt lat="50.472851" lon="4.231747"><time>2026-05-02T19:18:25Z</time></trkpt>
</trkseg>
</trk>
</gpx>